createdAt,value
2023-01-03T00:01:34.328Z,7.57
2023-01-03T00:04:03.729Z,7.56
2023-01-03T00:06:34.293Z,7.52
2023-01-03T01:31:26.123Z,6.83
2023-01-03T01:34:07.134Z,6.90
2023-01-03T01:36:51.841Z,6.87
2023-01-03T01:39:49.353Z,6.82
2023-01-03T01:45:42.796Z,6.83
2023-01-03T01:48:37.131Z,6.80
2023-01-03T01:51:12.463Z,6.80
2023-01-03T02:04:47.824Z,6.79
2023-01-03T02:10:27.878Z,6.68
2023-01-03T02:13:28.099Z,6.71
2023-01-03T02:16:29.294Z,6.76
2023-01-03T05:03:28.166Z,7.03
2023-01-03T05:09:32.361Z,6.97
2023-01-03T05:12:12.815Z,7.23
2023-01-03T05:15:03.835Z,7.14
2023-01-03T05:17:42.893Z,7.31
2023-01-03T05:23:53.417Z,7.20
2023-01-03T05:36:39.302Z,7.38
2023-01-03T05:42:29.392Z,7.49
2023-01-03T06:02:46.074Z,7.59
2023-01-03T07:26:28.819Z,7.04
2023-01-03T07:28:58.413Z,7.12
2023-01-03T07:31:35.271Z,7.25
2023-01-03T07:34:10.205Z,7.56
2023-01-03T07:36:50.277Z,7.42
2023-01-03T07:42:44.482Z,7.46
2023-01-03T07:45:15.728Z,7.37
2023-01-03T07:47:47.728Z,7.11
2023-01-03T07:50:23.933Z,6.90
2023-01-03T07:52:55.705Z,6.91
2023-01-03T07:55:24.179Z,6.97
2023-01-03T07:57:53.561Z,6.88
2023-01-03T08:00:32.704Z,6.67
2023-01-03T08:03:10.600Z,6.69
2023-01-03T08:05:47.674Z,6.62
2023-01-03T08:08:20.368Z,6.58
2023-01-03T08:11:11.072Z,6.55
2023-01-03T08:13:53.579Z,6.50
2023-01-03T08:16:35.228Z,6.53
2023-01-03T08:19:10.100Z,6.54
2023-01-03T08:21:46.993Z,6.65
2023-01-03T08:24:17.612Z,6.60
2023-01-03T08:26:47.127Z,6.50
2023-01-03T08:29:26.297Z,6.54
2023-01-03T08:32:00.355Z,6.54
2023-01-03T08:41:53.892Z,6.59
2023-01-03T08:44:29.763Z,6.54
2023-01-03T08:47:08.138Z,6.54
2023-01-03T09:10:35.940Z,6.86
2023-01-03T09:13:05.669Z,6.99
2023-01-03T09:25:15.219Z,6.93
2023-01-03T09:27:55.539Z,6.94
2023-01-03T09:30:30.666Z,6.87
2023-01-03T09:33:30.101Z,7.10
2023-01-03T09:39:43.542Z,7.27
2023-01-03T09:42:40.637Z,7.22
2023-01-03T09:45:45.664Z,7.14
2023-01-03T09:55:09.519Z,7.27
2023-01-03T09:58:06.160Z,7.16
2023-01-03T10:01:05.767Z,7.08
2023-01-03T10:04:05.229Z,7.26
2023-01-03T10:07:10.834Z,7.34
2023-01-03T10:09:49.824Z,7.46
2023-01-03T10:12:31.280Z,7.48
2023-01-03T10:15:20.985Z,7.38
2023-01-03T10:18:04.077Z,7.40
2023-01-03T10:20:46.018Z,7.46
2023-01-03T10:23:22.796Z,7.67
2023-01-03T10:25:55.094Z,7.63
2023-01-03T10:28:42.359Z,7.56
2023-01-03T10:31:26.700Z,7.68
2023-01-03T10:33:57.720Z,7.59
2023-01-03T10:36:29.778Z,7.79
2023-01-03T10:39:11.088Z,7.80
2023-01-03T10:41:48.130Z,7.85
2023-01-03T10:44:30.216Z,8.06
2023-01-03T10:50:41.562Z,7.60
2023-01-03T10:53:26.335Z,7.90
2023-01-03T10:56:17.944Z,7.74
2023-01-03T10:58:54.566Z,7.81
2023-01-03T11:04:48.312Z,8.54
2023-01-03T11:07:34.129Z,9.44
2023-01-03T11:20:34.086Z,8.98
2023-01-03T11:23:40.203Z,9.13
2023-01-03T11:26:22.272Z,8.91
2023-01-03T11:29:16.871Z,8.62
2023-01-03T11:31:57.067Z,8.64
2023-01-03T11:35:20.721Z,8.51
2023-01-03T11:37:47.922Z,8.96
2023-01-03T11:40:54.100Z,8.78
2023-01-03T11:43:52.446Z,8.44
2023-01-03T11:46:38.704Z,8.49
2023-01-03T11:49:34.777Z,8.25
2023-01-03T11:52:26.498Z,8.52
2023-01-03T11:55:20.717Z,8.36
2023-01-03T11:58:02.318Z,8.18
2023-01-03T12:00:39.906Z,8.30
2023-01-03T12:03:18.058Z,8.90
2023-01-03T12:06:29.934Z,8.79
2023-01-03T12:09:15.462Z,8.83
2023-01-03T12:12:10.925Z,9.02
2023-01-03T12:14:54.725Z,8.71
2023-01-03T12:17:28.884Z,8.91
2023-01-03T12:20:13.175Z,8.71
2023-01-03T12:23:03.320Z,8.75
2023-01-03T12:25:46.993Z,8.64
2023-01-03T12:28:44.347Z,8.63
2023-01-03T12:31:37.389Z,8.46
2023-01-03T12:34:27.839Z,8.70
2023-01-03T12:40:42.501Z,8.79
2023-01-03T12:43:19.860Z,8.93
2023-01-03T12:51:46.271Z,9.57
2023-01-03T12:54:37.990Z,9.76
2023-01-03T12:57:33.156Z,9.44
2023-01-03T13:03:44.723Z,9.66
2023-01-03T13:06:37.580Z,9.53
2023-01-03T13:09:44.378Z,9.41
2023-01-03T13:12:43.157Z,9.46
2023-01-03T13:15:37.740Z,9.70
2023-01-03T13:18:47.336Z,9.91
2023-01-03T13:22:18.923Z,9.77
2023-01-03T13:25:03.446Z,9.80
2023-01-03T13:27:39.493Z,9.72
2023-01-03T13:33:27.495Z,9.14
2023-01-03T13:39:11.548Z,8.99
2023-01-03T14:30:40.141Z,9.52
2023-01-03T14:33:33.665Z,9.25
2023-01-03T14:36:16.478Z,9.26
2023-01-03T14:39:00.374Z,9.19
2023-01-03T14:41:38.463Z,9.43
2023-01-03T14:44:49.148Z,9.34
2023-01-03T14:50:34.191Z,9.43
2023-01-03T14:53:08.717Z,9.73
2023-01-03T14:55:47.328Z,9.44
2023-01-03T15:01:43.407Z,9.16
2023-01-03T15:04:32.941Z,9.43
2023-01-03T15:07:13.519Z,9.38
2023-01-03T15:09:44.496Z,9.53
2023-01-03T15:12:20.200Z,9.57
2023-01-03T15:17:44.694Z,9.20
2023-01-03T15:33:44.825Z,9.42
2023-01-03T15:36:21.585Z,9.31
2023-01-03T15:38:54.785Z,9.19
2023-01-03T17:11:51.574Z,9.08
2023-01-03T17:17:38.919Z,8.90
2023-01-03T17:39:42.769Z,8.63
2023-01-03T18:43:00.942Z,8.36
2023-01-03T22:35:05.722Z,7.10
2023-01-03T22:40:39.077Z,7.27
2023-01-03T22:43:22.484Z,7.30
2023-01-03T22:46:03.258Z,7.28
2023-01-03T22:48:55.170Z,7.29
2023-01-03T22:51:42.824Z,7.31
2023-01-03T22:54:31.205Z,7.24
2023-01-03T22:57:05.062Z,7.37
2023-01-03T22:59:39.910Z,7.33
2023-01-03T23:02:28.835Z,7.24
2023-01-03T23:05:17.944Z,7.45
2023-01-03T23:07:52.773Z,7.37
2023-01-03T23:13:40.813Z,7.58
2023-01-03T23:16:27.177Z,7.44
2023-01-03T23:18:59.698Z,7.46
2023-01-03T23:22:30.636Z,7.31
2023-01-03T23:25:16.734Z,7.26
2023-01-03T23:27:49.741Z,7.19
2023-01-03T23:30:23.419Z,7.20
2023-01-03T23:32:52.152Z,7.13
2023-01-03T23:35:23.597Z,7.26
2023-01-03T23:38:07.107Z,7.33
2023-01-03T23:40:41.556Z,7.19
2023-01-03T23:43:25.570Z,7.16
2023-01-03T23:45:59.040Z,7.13
2023-01-03T23:48:30.766Z,7.25
2023-01-03T23:51:15.284Z,7.21
2023-01-03T23:53:58.069Z,7.27
2023-01-03T23:56:47.964Z,7.26
2023-01-03T23:59:33.980Z,7.21
